Time;durP1;ratioP1;P1;durP2;ratioP2;P2;SDS_P1;SDS_P2;PMS_P1;PMS_P2;Temp;Humidity;BMP_temperature;BMP_pressure;BME280_temperature;BME280_humidity;BME280_pressure;Samples;Min_cycle;Max_cycle;Signal;HPM_P1;HPM_P2
2022/04/13 00:00:32;;;;;;;11.63;8.30;;;;;;;;;;5054760;28;20275;-73
2022/04/13 00:02:58;;;;;;;10.87;7.07;;;13.30;99.90;;;;;;5054599;28;20286;-74
2022/04/13 00:05:24;;;;;;;12.00;7.33;;;13.30;99.90;;;;;;5054763;28;20275;-74
2022/04/13 00:07:50;;;;;;;14.47;8.17;;;13.30;99.90;;;;;;5054518;28;20843;-73
2022/04/13 00:10:16;;;;;;;11.23;8.07;;;13.30;99.90;;;;;;5054593;28;20041;-74
2022/04/13 00:12:42;;;;;;;8.97;7.40;;;;;;;;;;5054492;28;20358;-73
2022/04/13 00:15:09;;;;;;;12.90;7.73;;;13.20;99.90;;;;;;5054704;28;20494;-74
2022/04/13 00:17:36;;;;;;;11.03;8.23;;;13.20;99.90;;;;;;5054814;28;20690;-74
2022/04/13 00:20:04;;;;;;;10.97;8.47;;;13.20;99.90;;;;;;5054414;28;20283;-74
2022/04/13 00:22:29;;;;;;;13.83;8.00;;;13.20;99.90;;;;;;5054382;28;20278;-74
2022/04/13 00:24:56;;;;;;;14.67;8.77;;;13.10;99.90;;;;;;5054344;28;20287;-74
2022/04/13 00:27:21;;;;;;;11.50;8.03;;;13.10;99.90;;;;;;5054217;28;20044;-74
2022/04/13 00:29:47;;;;;;;16.70;9.17;;;13.10;99.90;;;;;;5036885;28;20767;-74
2022/04/13 00:32:13;;;;;;;13.67;9.73;;;13.10;99.90;;;;;;5036339;28;20057;-74
2022/04/13 00:34:39;;;;;;;15.83;9.70;;;13.10;99.90;;;;;;5054064;28;20052;-74
2022/04/13 00:37:05;;;;;;;16.73;10.33;;;13.10;99.90;;;;;;5054168;28;20068;-74
2022/04/13 00:39:30;;;;;;;15.07;9.97;;;13.10;99.90;;;;;;5054062;28;20279;-74
2022/04/13 00:42:03;;;;;;;15.97;11.23;;;13.00;99.90;;;;;;5053954;28;20049;-74
2022/04/13 00:44:29;;;;;;;15.27;10.63;;;13.10;99.90;;;;;;5036025;28;20045;-73
2022/04/13 00:46:56;;;;;;;17.53;10.63;;;;;;;;;;5053850;28;20877;-73
2022/04/13 00:49:23;;;;;;;16.37;11.50;;;13.10;99.90;;;;;;5053866;28;20655;-73
2022/04/13 00:51:50;;;;;;;17.50;10.50;;;;;;;;;;5053761;28;20287;-73
2022/04/13 00:54:18;;;;;;;18.03;10.67;;;13.00;99.90;;;;;;5053946;28;20751;-74
2022/04/13 00:56:47;;;;;;;15.70;11.30;;;13.00;99.90;;;;;;5036220;28;20370;-73
2022/04/13 00:59:14;;;;;;;15.30;11.03;;;13.00;99.90;;;;;;5053689;28;20280;-73
2022/04/13 01:01:47;;;;;;;15.97;11.73;;;12.90;99.90;;;;;;5053615;28;20366;-74
2022/04/13 01:04:13;;;;;;;14.40;11.60;;;12.90;99.90;;;;;;5054160;28;20267;-73
2022/04/13 01:06:40;;;;;;;22.70;12.13;;;12.90;99.90;;;;;;5053791;28;20287;-73
2022/04/13 01:09:06;;;;;;;14.17;12.03;;;12.80;99.90;;;;;;5053543;28;20294;-74
2022/04/13 01:11:31;;;;;;;15.47;11.53;;;12.80;99.90;;;;;;5035802;28;20280;-74
2022/04/13 01:13:58;;;;;;;15.80;11.87;;;12.80;99.90;;;;;;5053131;28;20449;-73
2022/04/13 01:16:24;;;;;;;14.37;11.50;;;12.80;99.90;;;;;;5053640;28;20429;-73
2022/04/13 01:18:51;;;;;;;17.60;11.33;;;12.80;99.90;;;;;;5053178;28;20358;-73
2022/04/13 01:21:19;;;;;;;15.23;11.77;;;12.80;99.90;;;;;;5053648;28;20790;-73
2022/04/13 01:23:45;;;;;;;20.57;12.87;;;12.70;99.90;;;;;;5053170;28;20353;-73
2022/04/13 01:26:12;;;;;;;18.63;12.67;;;12.80;99.90;;;;;;5053381;28;20272;-73
2022/04/13 01:28:38;;;;;;;15.77;11.77;;;12.60;99.90;;;;;;5053374;28;20788;-73
2022/04/13 01:31:04;;;;;;;17.20;12.00;;;;;;;;;;5053271;28;20281;-73
2022/04/13 01:33:31;;;;;;;19.10;12.67;;;;;;;;;;5053305;28;20045;-73
2022/04/13 01:36:00;;;;;;;19.27;12.73;;;;;;;;;;5053808;28;20275;-73
2022/04/13 01:38:27;;;;;;;16.33;12.40;;;;;;;;;;5053256;28;20275;-73
2022/04/13 01:40:55;;;;;;;17.40;13.07;;;;;;;;;;5035560;28;20294;-73
2022/04/13 01:43:21;;;;;;;17.57;12.33;;;;;;;;;;5053266;28;20272;-73
2022/04/13 01:45:47;;;;;;;22.50;12.37;;;;;;;;;;5053135;28;20641;-73
2022/04/13 01:48:13;;;;;;;21.13;13.53;;;;;;;;;;5053024;28;20325;-73
2022/04/13 01:50:39;;;;;;;20.33;13.83;;;;;;;;;;5053146;28;20283;-73
2022/04/13 01:53:05;;;;;;;18.80;14.83;;;;;;;;;;5053881;28;20620;-73
2022/04/13 01:55:31;;;;;;;19.23;12.93;;;;;;;;;;5053131;28;20337;-73
2022/04/13 01:57:57;;;;;;;19.73;14.90;;;;;;;;;;5053041;28;20275;-73
2022/04/13 02:00:23;;;;;;;20.97;13.57;;;;;;;;;;5053355;28;20287;-73
2022/04/13 02:02:49;;;;;;;19.43;14.63;;;;;;;;;;5053258;28;20279;-73
2022/04/13 02:05:15;;;;;;;23.00;15.10;;;;;;;;;;5035892;28;20276;-73
2022/04/13 02:07:41;;;;;;;20.50;13.77;;;;;;;;;;5053264;28;20302;-73
2022/04/13 02:10:09;;;;;;;23.83;14.50;;;;;;;;;;5035313;28;20358;-73
2022/04/13 02:12:36;;;;;;;20.03;15.20;;;;;;;;;;5052971;28;20755;-73
2022/04/13 02:15:02;;;;;;;23.63;15.27;;;;;;;;;;5052320;28;20329;-73
2022/04/13 02:17:28;;;;;;;19.47;12.97;;;;;;;;;;5053760;28;20299;-73
2022/04/13 02:19:54;;;;;;;21.80;14.83;;;;;;;;;;5056662;28;20371;-73
2022/04/13 02:22:20;;;;;;;18.50;14.70;;;;;;;;;;5056641;28;20763;-73
2022/04/13 02:24:47;;;;;;;19.77;15.13;;;;;;;;;;5056512;28;20283;-73
2022/04/13 02:27:13;;;;;;;21.67;14.57;;;;;;;;;;5057109;28;20342;-73
2022/04/13 02:29:40;;;;;;;19.40;14.23;;;;;;;;;;5038610;28;20283;-73
2022/04/13 02:32:06;;;;;;;18.57;13.50;;;;;;;;;;5056406;28;20329;-73
2022/04/13 02:34:33;;;;;;;23.10;14.50;;;;;;;;;;5038711;28;20357;-73
2022/04/13 02:37:00;;;;;;;21.67;14.40;;;;;;;;;;5055939;28;20276;-73
2022/04/13 02:39:26;;;;;;;22.57;15.37;;;;;;;;;;5056345;28;20862;-73
2022/04/13 02:41:52;;;;;;;19.43;14.60;;;;;;;;;;5056789;28;20709;-73
2022/04/13 02:44:18;;;;;;;21.63;14.07;;;;;;;;;;5038992;28;20302;-73
2022/04/13 02:46:45;;;;;;;18.67;13.73;;;;;;;;;;5056599;28;20299;-73
2022/04/13 02:49:11;;;;;;;22.37;14.40;;;;;;;;;;5056200;28;20670;-73
2022/04/13 02:51:37;;;;;;;20.23;13.73;;;;;;;;;;5056449;28;20275;-73
2022/04/13 02:54:03;;;;;;;22.03;15.07;;;;;;;;;;5056172;28;20290;-73
2022/04/13 02:56:30;;;;;;;23.23;15.03;;;;;;;;;;5055807;28;20290;-73
2022/04/13 02:58:56;;;;;;;19.43;14.23;;;;;;;;;;5056230;28;20584;-73
2022/04/13 03:01:22;;;;;;;21.87;15.10;;;;;;;;;;5056443;28;20597;-73
2022/04/13 03:03:48;;;;;;;21.17;14.17;;;;;;;;;;5055010;28;20280;-74
2022/04/13 03:06:14;;;;;;;21.70;16.03;;;;;;;;;;5055651;28;20374;-73
2022/04/13 03:08:40;;;;;;;20.93;14.70;;;;;;;;;;5055492;28;20767;-73
2022/04/13 03:11:07;;;;;;;21.30;14.80;;;;;;;;;;5056002;28;20275;-73
2022/04/13 03:13:33;;;;;;;20.20;15.67;;;;;;;;;;5038540;28;20362;-73
2022/04/13 03:15:59;;;;;;;22.13;15.40;;;;;;;;;;5055441;28;20276;-73
2022/04/13 03:18:25;;;;;;;26.10;15.97;;;;;;;;;;5055417;28;20271;-73
2022/04/13 03:20:51;;;;;;;25.60;15.77;;;12.30;99.90;;;;;;5055577;28;20334;-74
2022/04/13 03:23:17;;;;;;;22.27;15.90;;;12.30;99.90;;;;;;5055067;28;20639;-74
2022/04/13 03:25:42;;;;;;;23.27;15.53;;;12.20;99.90;;;;;;5055292;28;20041;-74
2022/04/13 03:28:08;;;;;;;22.97;15.93;;;12.10;99.90;;;;;;5053632;28;20106;-74
2022/04/13 03:30:34;;;;;;;33.43;16.90;;;12.10;99.90;;;;;;5054977;28;20389;-73
2022/04/13 03:33:00;;;;;;;24.63;16.57;;;12.10;99.90;;;;;;5055515;28;20174;-73
2022/04/13 03:35:26;;;;;;;21.90;16.67;;;12.00;99.90;;;;;;5055164;28;20643;-74
2022/04/13 03:37:52;;;;;;;22.27;15.67;;;12.00;99.90;;;;;;5055142;28;20041;-74
2022/04/13 03:40:18;;;;;;;23.43;16.80;;;12.00;99.90;;;;;;5055304;28;20412;-74
2022/04/13 03:42:43;;;;;;;25.30;15.87;;;12.00;99.90;;;;;;5054669;28;20048;-74
2022/04/13 03:45:11;;;;;;;24.43;16.40;;;11.90;99.90;;;;;;5054732;28;20057;-74
2022/04/13 03:47:39;;;;;;;26.67;16.50;;;12.00;99.90;;;;;;5054763;28;20049;-74
2022/04/13 03:50:06;;;;;;;22.90;16.37;;;11.90;99.90;;;;;;5054738;28;20295;-74
2022/04/13 03:52:33;;;;;;;21.60;16.97;;;12.00;99.90;;;;;;5054515;28;20791;-74
2022/04/13 03:55:01;;;;;;;25.07;16.80;;;12.00;99.90;;;;;;5054702;28;20627;-73
2022/04/13 03:57:27;;;;;;;24.47;16.80;;;11.90;99.90;;;;;;5054577;28;20280;-74
2022/04/13 03:59:52;;;;;;;23.83;17.07;;;11.90;99.90;;;;;;5055436;28;20790;-74
2022/04/13 04:02:18;;;;;;;22.53;16.53;;;11.90;99.90;;;;;;5054574;28;20048;-73
2022/04/13 04:04:44;;;;;;;25.43;16.57;;;11.90;99.90;;;;;;5054467;28;20055;-74
2022/04/13 04:07:09;;;;;;;23.60;16.50;;;11.90;99.90;;;;;;5054394;28;20153;-73
2022/04/13 04:09:35;;;;;;;25.47;16.40;;;11.90;99.90;;;;;;5054408;28;20132;-74
2022/04/13 04:12:01;;;;;;;22.43;15.53;;;11.90;99.90;;;;;;5054891;28;20481;-73
2022/04/13 04:14:27;;;;;;;22.97;16.40;;;11.80;99.90;;;;;;5053365;28;20057;-74
2022/04/13 04:16:52;;;;;;;22.37;16.03;;;11.80;99.90;;;;;;5054861;28;20077;-74
2022/04/13 04:19:18;;;;;;;20.07;15.97;;;11.90;99.90;;;;;;5036568;28;20047;-73
2022/04/13 04:21:44;;;;;;;23.00;16.37;;;11.90;99.90;;;;;;5036314;28;20045;-74
2022/04/13 04:24:10;;;;;;;23.67;16.27;;;11.90;99.90;;;;;;5054006;28;20041;-74
2022/04/13 04:26:35;;;;;;;21.03;15.43;;;11.90;99.90;;;;;;5036400;28;20106;-74
2022/04/13 04:29:01;;;;;;;22.90;15.83;;;11.90;99.90;;;;;;5054061;28;20370;-72
2022/04/13 04:34:11;;;;;;;22.40;16.30;;;11.90;99.90;;;;;;5054734;28;20103;-75
2022/04/13 04:36:36;;;;;;;23.60;16.80;;;11.80;99.90;;;;;;5054648;28;20708;-75
2022/04/13 04:39:02;;;;;;;23.93;16.33;;;11.80;99.90;;;;;;5053912;28;20052;-75
2022/04/13 04:41:28;;;;;;;23.77;16.07;;;11.80;99.90;;;;;;5052856;28;20461;-76
2022/04/13 04:43:54;;;;;;;21.80;15.93;;;11.80;99.90;;;;;;5053792;28;20087;-76
2022/04/13 04:46:19;;;;;;;26.33;16.17;;;11.80;99.90;;;;;;5054180;28;20056;-75
2022/04/13 04:48:45;;;;;;;23.60;16.47;;;11.80;99.90;;;;;;5035997;28;20092;-75
2022/04/13 04:51:12;;;;;;;23.50;16.80;;;11.90;99.90;;;;;;5054324;28;20093;-76
2022/04/13 04:53:38;;;;;;;27.10;18.80;;;11.90;99.90;;;;;;5036134;28;20674;-76
2022/04/13 04:56:04;;;;;;;26.30;18.40;;;11.90;99.90;;;;;;5052947;28;20370;-73
2022/04/13 04:58:30;;;;;;;22.97;16.37;;;11.90;99.90;;;;;;5054001;28;20386;-74
2022/04/13 05:00:56;;;;;;;23.37;16.90;;;11.90;99.90;;;;;;5052576;28;20283;-74
2022/04/13 05:03:22;;;;;;;24.97;17.00;;;11.90;99.90;;;;;;5053363;28;20044;-73
2022/04/13 05:05:47;;;;;;;31.77;20.97;;;11.90;99.90;;;;;;5053398;28;20291;-74
2022/04/13 05:08:13;;;;;;;26.43;18.87;;;11.90;99.90;;;;;;5035999;28;20084;-74
2022/04/13 05:10:41;;;;;;;28.77;19.43;;;12.00;99.90;;;;;;5053671;28;20049;-73
2022/04/13 05:13:07;;;;;;;26.80;18.63;;;12.00;99.90;;;;;;5053274;28;20432;-73
2022/04/13 05:15:32;;;;;;;24.00;18.47;;;12.00;99.90;;;;;;5036000;28;20306;-74
2022/04/13 05:17:58;;;;;;;27.90;17.97;;;12.00;99.90;;;;;;5052988;28;20052;-74
2022/04/13 05:20:24;;;;;;;29.20;19.23;;;12.00;99.90;;;;;;5053202;28;20049;-73
2022/04/13 05:22:50;;;;;;;26.53;18.80;;;12.00;99.90;;;;;;5053276;28;20678;-74
2022/04/13 05:25:16;;;;;;;26.87;17.57;;;12.00;99.90;;;;;;5053093;28;20279;-73
2022/04/13 05:27:44;;;;;;;27.30;19.30;;;12.00;99.90;;;;;;5053877;28;20037;-73
2022/04/13 05:30:10;;;;;;;26.50;18.83;;;12.00;99.90;;;;;;5053115;28;20295;-73
2022/04/13 05:32:56;;;;;;;26.33;19.13;;;12.10;99.90;;;;;;5053167;28;20303;-73
2022/04/13 05:35:22;;;;;;;;;;;12.10;99.90;;;;;;5054162;28;20605;-73
2022/04/13 05:37:47;;;;;;;26.73;18.20;;;12.10;99.90;;;;;;5053132;28;19920;-73
2022/04/13 05:40:13;;;;;;;27.57;18.60;;;12.10;99.90;;;;;;5053548;28;20072;-73
2022/04/13 05:42:39;;;;;;;27.03;19.50;;;12.10;99.90;;;;;;5053297;28;20435;-73
2022/04/13 05:45:06;;;;;;;24.73;17.77;;;12.20;99.90;;;;;;5052727;28;20119;-74
2022/04/13 05:47:31;;;;;;;24.47;18.73;;;12.20;99.90;;;;;;5052999;28;20140;-74
2022/04/13 05:49:57;;;;;;;27.00;19.73;;;12.30;99.90;;;;;;5053636;28;20397;-73
2022/04/13 05:52:23;;;;;;;28.60;20.00;;;12.40;99.90;;;;;;5055132;28;20492;-73
2022/04/13 05:54:48;;;;;;;25.67;17.77;;;12.50;99.90;;;;;;5057280;28;20051;-74
2022/04/13 05:57:14;;;;;;;26.40;18.30;;;12.50;99.90;;;;;;5057221;28;20041;-73
2022/04/13 05:59:40;;;;;;;27.90;18.60;;;12.60;99.90;;;;;;5057066;28;20055;-75
2022/04/13 06:02:05;;;;;;;27.43;18.30;;;12.70;99.90;;;;;;5056598;28;20045;-74
2022/04/13 06:04:31;;;;;;;26.53;18.40;;;12.70;99.90;;;;;;5055958;28;20053;-73
2022/04/13 06:06:59;;;;;;;24.70;18.30;;;12.80;99.90;;;;;;5056736;28;20315;-73
2022/04/13 06:09:25;;;;;;;24.17;17.07;;;12.80;99.90;;;;;;5039943;28;20044;-74
2022/04/13 06:11:50;;;;;;;25.77;17.93;;;12.80;99.90;;;;;;5039096;28;20333;-73
2022/04/13 06:14:17;;;;;;;26.67;19.07;;;12.80;99.90;;;;;;5057165;28;20053;-73
2022/04/13 06:16:43;;;;;;;23.23;17.23;;;12.80;99.90;;;;;;5056657;28;20443;-73
2022/04/13 06:19:08;;;;;;;25.07;17.87;;;12.80;99.90;;;;;;5057126;28;20279;-74
2022/04/13 06:21:35;;;;;;;21.07;17.17;;;12.80;99.90;;;;;;5056339;28;20045;-74
2022/04/13 06:24:00;;;;;;;24.10;17.47;;;12.80;99.90;;;;;;5056259;28;20077;-74
2022/04/13 06:26:26;;;;;;;26.90;17.60;;;12.80;99.90;;;;;;5056901;28;20314;-73
2022/04/13 06:28:52;;;;;;;27.17;17.23;;;12.90;99.90;;;;;;5055772;28;20067;-74
2022/04/13 06:31:19;;;;;;;24.77;18.23;;;12.90;99.90;;;;;;5056858;28;20373;-73
2022/04/13 06:33:45;;;;;;;23.23;16.67;;;12.90;99.90;;;;;;5057060;28;20131;-73
2022/04/13 06:36:10;;;;;;;22.47;16.00;;;13.00;99.90;;;;;;5056678;28;20284;-74
2022/04/13 06:38:40;;;;;;;27.30;17.77;;;13.00;99.90;;;;;;5055817;28;20620;-73
2022/04/13 06:41:07;;;;;;;24.67;16.93;;;13.00;99.90;;;;;;5056110;28;20048;-73
2022/04/13 06:43:33;;;;;;;21.43;15.17;;;13.10;99.90;;;;;;5054674;28;20285;-74
2022/04/13 06:45:59;;;;;;;21.50;14.77;;;13.20;99.90;;;;;;5055799;28;20291;-73
2022/04/13 06:48:24;;;;;;;22.50;14.60;;;13.20;99.90;;;;;;5056073;28;20068;-73
2022/04/13 06:50:50;;;;;;;20.97;14.53;;;13.20;99.90;;;;;;5055159;28;20457;-74
2022/04/13 06:53:18;;;;;;;24.73;14.80;;;13.30;99.90;;;;;;5037091;28;20056;-73
2022/04/13 06:55:45;;;;;;;21.67;14.70;;;;;;;;;;5055895;28;20052;-73
2022/04/13 06:58:11;;;;;;;23.53;15.20;;;13.70;99.90;;;;;;5055974;28;20280;-73
2022/04/13 07:00:36;;;;;;;22.27;15.10;;;13.70;99.90;;;;;;5055850;28;20378;-73
2022/04/13 07:03:03;;;;;;;20.83;13.57;;;;;;;;;;5055227;28;20051;-73
2022/04/13 07:05:29;;;;;;;21.67;14.13;;;13.90;99.90;;;;;;5056195;28;20044;-74
2022/04/13 07:07:55;;;;;;;22.10;13.77;;;14.00;99.90;;;;;;5055595;28;20296;-73
2022/04/13 07:10:21;;;;;;;21.87;13.47;;;14.10;99.90;;;;;;5055591;28;20290;-73
2022/04/13 07:12:47;;;;;;;24.13;12.60;;;14.10;99.90;;;;;;5055503;28;20279;-73
2022/04/13 07:15:17;;;;;;;23.37;13.17;;;;;;;;;;5055583;28;20336;-73
2022/04/13 07:17:43;;;;;;;18.67;11.90;;;14.20;99.90;;;;;;5056085;28;20377;-73
2022/04/13 07:20:10;;;;;;;17.90;12.50;;;14.10;99.90;;;;;;5053820;28;20737;-74
2022/04/13 07:22:50;;;;;;;23.43;13.57;;;14.20;99.90;;;;;;5055519;28;20330;-74
2022/04/13 07:25:17;;;;;;;17.17;11.83;;;14.20;99.90;;;;;;5055288;28;20290;-74
2022/04/13 07:27:44;;;;;;;17.00;12.03;;;14.30;99.90;;;;;;5055171;28;20303;-73
2022/04/13 07:30:10;;;;;;;18.17;12.17;;;14.30;99.90;;;;;;5055254;28;20798;-73
2022/04/13 07:32:36;;;;;;;19.40;13.00;;;14.40;99.90;;;;;;5055423;28;20690;-73
2022/04/13 07:35:03;;;;;;;21.17;13.23;;;;;;;;;;5054009;28;20370;-73
2022/04/13 07:37:29;;;;;;;22.60;12.90;;;14.50;99.90;;;;;;5055063;28;20478;-73
2022/04/13 07:39:55;;;;;;;22.07;11.93;;;14.70;99.90;;;;;;5055156;28;20726;-73
2022/04/13 07:42:26;;;;;;;17.00;11.97;;;14.90;99.90;;;;;;5037446;28;20604;-74
2022/04/13 07:44:53;;;;;;;16.97;11.83;;;15.10;99.90;;;;;;5055044;28;20279;-73
2022/04/13 07:47:20;;;;;;;21.03;12.53;;;15.30;99.90;;;;;;5055110;28;20303;-73
2022/04/13 07:49:47;;;;;;;18.20;11.23;;;;;;;;;;5036808;28;20647;-73
2022/04/13 07:52:13;;;;;;;16.80;10.47;;;17.40;99.90;;;;;;5054911;28;20691;-73
2022/04/13 07:54:39;;;;;;;18.90;11.23;;;18.60;99.90;;;;;;5054779;28;20294;-73
2022/04/13 07:57:05;;;;;;;16.73;11.10;;;19.60;99.90;;;;;;5037331;28;20288;-74
2022/04/13 07:59:31;;;;;;;17.10;10.93;;;19.60;99.20;;;;;;5054645;28;20102;-73
2022/04/13 08:01:57;;;;;;;18.93;10.27;;;19.30;99.10;;;;;;5037079;28;20084;-73
2022/04/13 08:04:22;;;;;;;15.80;10.33;;;19.10;99.80;;;;;;5054553;28;20052;-73
2022/04/13 08:06:48;;;;;;;18.23;10.93;;;18.60;99.70;;;;;;5021281;28;20052;-73
2022/04/13 08:09:14;;;;;;;13.00;9.90;;;18.10;99.30;;;;;;5055364;28;20056;-74
2022/04/13 08:11:40;;;;;;;20.40;11.13;;;17.90;99.90;;;;;;5054465;28;20473;-73
2022/04/13 08:14:06;;;;;;;14.20;10.27;;;17.80;99.90;;;;;;5037619;28;20051;-73
2022/04/13 08:16:31;;;;;;;19.20;10.57;;;17.80;99.90;;;;;;5053079;28;20044;-73
2022/04/13 08:18:58;;;;;;;19.67;11.47;;;17.80;99.90;;;;;;5054413;28;20076;-74
2022/04/13 08:21:23;;;;;;;18.40;10.30;;;17.80;99.90;;;;;;5054355;28;20135;-74
2022/04/13 08:23:50;;;;;;;17.70;10.40;;;17.70;99.90;;;;;;5054320;28;20267;-73
2022/04/13 08:26:15;;;;;;;18.37;11.23;;;17.70;99.90;;;;;;5054271;28;20051;-74
2022/04/13 08:28:41;;;;;;;17.13;10.67;;;17.60;99.90;;;;;;5054090;28;20041;-74
2022/04/13 08:31:09;;;;;;;12.80;9.43;;;17.50;99.90;;;;;;5054360;28;20080;-74
2022/04/13 08:33:38;;;;;;;17.40;11.80;;;17.40;99.90;;;;;;5054648;28;20045;-74
2022/04/13 08:36:04;;;;;;;18.10;12.17;;;17.20;99.90;;;;;;5054058;28;20056;-73
2022/04/13 08:38:29;;;;;;;17.50;12.23;;;17.00;99.90;;;;;;5054013;28;20043;-73
2022/04/13 08:40:57;;;;;;;19.63;11.77;;;16.90;99.90;;;;;;5053978;28;20110;-73
2022/04/13 08:43:40;;;;;;;16.90;11.20;;;16.90;99.90;;;;;;5053910;28;20443;-74
2022/04/13 08:46:10;;;;;;;17.63;11.60;;;16.90;99.90;;;;;;5053780;28;20386;-73
2022/04/13 08:48:40;;;;;;;18.73;12.87;;;16.90;99.90;;;;;;5053415;28;20519;-73
2022/04/13 08:51:11;;;;;;;20.43;11.67;;;17.00;99.90;;;;;;5053791;28;20045;-73
2022/04/13 08:53:42;;;;;;;21.57;11.60;;;17.00;99.90;;;;;;5054644;28;20057;-73
2022/04/13 08:56:14;;;;;;;17.70;11.27;;;17.00;99.90;;;;;;5053989;28;20044;-73
2022/04/13 08:58:55;;;;;;;17.83;12.13;;;17.00;99.90;;;;;;5036880;28;20059;-74
2022/04/13 09:01:29;;;;;;;26.50;11.70;;;17.00;99.90;;;;;;5053635;28;20182;-74
2022/04/13 09:04:00;;;;;;;16.38;10.70;;;17.00;99.90;;;;;;5053338;28;20554;-73
2022/04/13 09:06:28;;;;;;;17.30;11.70;;;17.00;99.90;;;;;;5054173;28;20049;-74
2022/04/13 09:09:00;;;;;;;17.93;10.30;;;17.00;99.90;;;;;;5053433;28;20127;-74
2022/04/13 09:11:28;;;;;;;19.33;10.33;;;17.00;99.90;;;;;;5053375;28;20045;-74
2022/04/13 09:13:54;;;;;;;16.83;10.50;;;17.00;99.90;;;;;;5053600;28;20056;-74
2022/04/13 09:16:20;;;;;;;15.97;10.13;;;16.90;99.90;;;;;;5053402;28;20055;-73
2022/04/13 09:18:46;;;;;;;13.93;8.90;;;16.80;99.90;;;;;;5036007;28;20464;-73
2022/04/13 09:21:13;;;;;;;17.23;10.63;;;16.80;99.90;;;;;;5053243;28;20045;-73
2022/04/13 09:23:39;;;;;;;15.70;9.73;;;16.80;99.90;;;;;;5053232;28;20036;-73
2022/04/13 09:26:07;;;;;;;17.23;9.97;;;16.80;99.90;;;;;;5052011;28;20044;-73
2022/04/13 09:28:33;;;;;;;15.60;9.80;;;16.80;99.90;;;;;;5053020;28;20466;-73
2022/04/13 09:31:00;;;;;;;17.00;10.07;;;16.80;99.90;;;;;;5053702;28;20087;-73
2022/04/13 09:33:26;;;;;;;15.60;8.83;;;16.80;99.90;;;;;;5053149;28;20045;-74
2022/04/13 09:35:53;;;;;;;15.70;9.37;;;16.90;99.90;;;;;;5035372;28;20106;-73
2022/04/13 09:38:19;;;;;;;19.97;9.83;;;17.00;99.90;;;;;;5053175;28;20084;-73
2022/04/13 09:40:46;;;;;;;16.17;9.87;;;17.00;99.90;;;;;;5053096;28;20049;-74
2022/04/13 09:43:14;;;;;;;16.87;9.60;;;17.00;99.90;;;;;;5053080;28;20045;-73
2022/04/13 09:45:42;;;;;;;13.83;8.30;;;17.00;99.90;;;;;;5052953;28;20053;-73
2022/04/13 09:48:13;;;;;;;16.03;7.97;;;17.00;99.90;;;;;;5052984;28;20052;-73
2022/04/13 09:50:39;;;;;;;12.73;6.97;;;17.10;99.90;;;;;;5053635;28;20134;-73
2022/04/13 09:53:07;;;;;;;13.33;7.30;;;17.10;99.90;;;;;;5053107;28;20049;-73
2022/04/13 09:55:45;;;;;;;14.70;8.10;;;17.10;99.90;;;;;;5035434;28;20049;-73
2022/04/13 09:58:13;;;;;;;14.80;6.73;;;17.10;99.90;;;;;;5052986;28;20045;-73
2022/04/13 10:00:40;;;;;;;13.67;6.90;;;17.20;99.90;;;;;;5036117;28;20059;-73
2022/04/13 10:03:07;;;;;;;14.63;7.73;;;17.30;99.90;;;;;;5052848;28;20052;-73
2022/04/13 10:05:33;;;;;;;14.73;7.90;;;17.30;99.90;;;;;;5052946;28;20048;-73
2022/04/13 10:08:08;;;;;;;14.67;7.97;;;17.30;99.90;;;;;;5053246;28;20041;-73
2022/04/13 10:10:35;;;;;;;12.30;7.45;;;17.40;99.90;;;;;;5035036;28;20053;-73
2022/04/13 10:13:01;;;;;;;14.70;7.07;;;17.40;99.90;;;;;;5052799;28;20441;-73
2022/04/13 10:15:27;;;;;;;11.60;7.63;;;17.50;99.90;;;;;;5052786;28;20072;-74
2022/04/13 10:18:00;;;;;;;14.77;7.53;;;17.50;99.90;;;;;;5052725;28;20477;-73
2022/04/13 10:20:46;;;;;;;12.60;6.63;;;17.60;99.90;;;;;;5052784;28;20049;-73
2022/04/13 10:23:14;;;;;;;14.23;8.60;;;17.70;99.90;;;;;;5035571;28;20048;-73
2022/04/13 10:25:41;;;;;;;12.03;6.90;;;17.70;99.90;;;;;;5053516;28;20380;-73
2022/04/13 10:28:07;;;;;;;11.60;7.07;;;17.80;99.90;;;;;;5052549;28;20080;-74
2022/04/13 10:30:35;;;;;;;14.60;7.63;;;17.80;99.90;;;;;;5052685;28;20081;-74
2022/04/13 10:33:03;;;;;;;14.23;7.37;;;17.80;99.90;;;;;;5035398;28;20087;-74
2022/04/13 10:35:31;;;;;;;16.70;8.03;;;17.80;99.90;;;;;;5051469;28;20049;-74
2022/04/13 10:37:58;;;;;;;12.43;7.23;;;17.80;99.90;;;;;;5052483;28;20056;-74
2022/04/13 10:40:25;;;;;;;16.13;6.97;;;17.80;99.90;;;;;;5055818;28;20048;-73
2022/04/13 10:42:52;;;;;;;14.73;7.87;;;17.90;99.90;;;;;;5056196;28;20044;-74
2022/04/13 10:45:18;;;;;;;15.83;7.23;;;17.90;99.90;;;;;;5056024;28;20049;-74
2022/04/13 10:47:56;;;;;;;13.87;6.77;;;18.00;99.90;;;;;;5057306;28;20092;-73
2022/04/13 10:50:49;;;;;;;15.97;6.00;;;18.00;99.90;;;;;;5056105;28;20045;-73
2022/04/13 10:53:14;;;;;;;11.90;6.07;;;18.00;99.90;;;;;;5050619;28;20488;-74
2022/04/13 10:55:42;;;;;;;14.63;6.50;;;18.10;99.90;;;;;;5055946;28;20102;-73
2022/04/13 10:58:17;;;;;;;18.60;7.13;;;18.00;99.90;;;;;;5038270;28;20075;-73
2022/04/13 11:00:46;;;;;;;14.63;6.27;;;18.00;99.90;;;;;;5056434;28;20045;-73
2022/04/13 11:03:12;;;;;;;13.80;6.07;;;17.90;99.90;;;;;;5055857;28;20049;-74
2022/04/13 11:05:40;;;;;;;15.67;6.77;;;17.90;99.90;;;;;;5055805;28;20045;-73
2022/04/13 11:08:15;;;;;;;14.00;7.23;;;17.80;99.90;;;;;;5055715;28;20044;-73
2022/04/13 11:10:48;;;;;;;12.57;6.88;;;17.70;99.90;;;;;;5055457;28;20114;-74
2022/04/13 11:13:17;;;;;;;16.53;6.60;;;17.60;99.90;;;;;;5056498;28;20392;-73
2022/04/13 11:15:49;;;;;;;14.87;6.80;;;17.50;99.90;;;;;;5054498;28;20053;-73
2022/04/13 11:18:17;;;;;;;14.13;6.70;;;17.50;99.90;;;;;;5055617;28;20124;-73
2022/04/13 11:21:12;;;;;;;13.63;5.93;;;17.40;99.90;;;;;;5055508;28;20055;-73
2022/04/13 11:23:54;;;;;;;15.93;7.05;;;17.40;99.90;;;;;;5046190;28;20144;-74
2022/04/13 11:26:34;;;;;;;14.67;6.43;;;17.40;99.90;;;;;;5055445;28;20044;-74
2022/04/13 11:29:21;;;;;;;13.60;6.20;;;17.30;99.90;;;;;;5055648;28;20392;-74
2022/04/13 11:32:02;;;;;;;14.63;6.07;;;17.30;99.90;;;;;;5037816;28;20507;-73
2022/04/13 11:34:41;;;;;;;13.20;4.80;;;17.20;99.90;;;;;;5055293;28;20083;-74
2022/04/13 11:37:13;;;;;;;13.20;5.17;;;17.20;99.90;;;;;;5055229;28;20124;-74
2022/04/13 11:39:53;;;;;;;13.60;5.50;;;17.20;99.90;;;;;;5056053;28;20453;-74
2022/04/13 11:42:24;;;;;;;16.73;5.33;;;17.10;99.90;;;;;;5055057;28;20087;-75
2022/04/13 11:45:00;;;;;;;13.43;5.33;;;17.00;99.90;;;;;;5054775;28;20492;-74
2022/04/13 11:47:37;;;;;;;13.37;4.77;;;17.00;99.90;;;;;;5055600;28;20099;-74
2022/04/13 11:50:18;;;;;;;16.93;5.97;;;16.90;99.90;;;;;;5037070;28;20102;-74
2022/04/13 11:53:03;;;;;;;16.00;5.50;;;;;;;;;;5053918;28;20049;-75
2022/04/13 11:55:37;;;;;;;19.38;6.80;;;16.90;99.90;;;;;;5055425;28;20056;-74
2022/04/13 11:58:08;;;;;;;15.77;6.15;;;16.70;99.90;;;;;;5054830;28;20052;-74
2022/04/13 12:00:54;;;;;;;15.00;6.00;;;16.70;99.90;;;;;;5055358;28;20049;-74
2022/04/13 12:03:26;;;;;;;19.10;7.10;;;16.70;99.90;;;;;;5039537;28;20056;-74
2022/04/13 12:05:54;;;;;;;14.03;6.60;;;16.70;99.90;;;;;;5055161;28;20460;-74
2022/04/13 12:08:25;;;;;;;18.77;8.50;;;16.70;99.90;;;;;;5054627;28;20049;-74
2022/04/13 12:11:00;;;;;;;16.80;9.10;;;16.60;99.90;;;;;;5054705;28;20127;-73
2022/04/13 12:13:27;;;;;;;;;;;16.50;99.90;;;;;;5055831;28;20128;-74
2022/04/13 12:15:55;;;;;;;14.77;9.30;;;16.40;99.90;;;;;;5054446;28;19976;-73
2022/04/13 12:18:25;;;;;;;17.97;9.47;;;16.40;99.90;;;;;;5054585;28;20080;-73
2022/04/13 12:20:53;;;;;;;17.30;8.30;;;16.30;99.90;;;;;;5055205;28;20049;-73
2022/04/13 12:23:27;;;;;;;17.20;8.90;;;16.40;99.90;;;;;;5054307;28;20051;-74
2022/04/13 12:25:59;;;;;;;18.73;9.63;;;16.40;99.90;;;;;;5054710;28;20045;-73
2022/04/13 12:28:24;;;;;;;18.87;9.23;;;16.50;99.90;;;;;;5054775;28;20040;-74
2022/04/13 12:31:03;;;;;;;15.90;9.17;;;16.50;99.90;;;;;;5037398;28;20055;-73
2022/04/13 12:33:30;;;;;;;14.57;8.27;;;16.50;99.90;;;;;;5054192;28;20048;-74
2022/04/13 12:36:01;;;;;;;14.53;8.50;;;16.50;99.90;;;;;;5054050;28;20045;-75
2022/04/13 12:38:32;;;;;;;13.90;8.70;;;16.50;99.90;;;;;;5054166;28;20072;-74
2022/04/13 12:41:06;;;;;;;15.50;8.13;;;16.40;99.90;;;;;;5036405;28;20037;-74
2022/04/13 12:43:33;;;;;;;18.43;8.07;;;16.40;99.90;;;;;;5054314;28;20091;-74
2022/04/13 12:46:08;;;;;;;17.70;8.00;;;16.50;99.90;;;;;;5053681;28;20079;-74
2022/04/13 12:48:33;;;;;;;;;;;16.60;99.90;;;;;;5054267;28;20049;-74
2022/04/13 12:51:02;;;;;;;15.00;7.83;;;16.60;99.90;;;;;;5053834;28;19944;-74
2022/04/13 12:53:39;;;;;;;15.50;7.27;;;16.70;99.90;;;;;;5052620;28;20051;-74